Aérodrome :
LOGIN :

S'inscrire | Disclaimer

   EN    FR    IT 

 










Légende :    VFR   VFR Marginal   IFR   IFR Intensif   IFR Très Intensif
Visi : 
Plafond : 
>= 8 km
>= 3000ft
5 à 8 km
1000 à 3000 ft
1500m à 5 km
500 à 1000 ft
800 à 1500m
200 à 500 ft
< 800m
< 200 ft
Symboles :   Orages  Brouillard  Fortes neiges  Fortes précipitations  Vent > 20 kt
SIGMETs :   Divers  Orages  Givrage  Turbulence  Onde Orograph.  Cendres Volcan.






- Altitude de l'aérodrome : 74 ft
- Code IATA : MRS


LFML - Marseille / Marignane

DERNIER METAR :
  • 170230Z AUTO 11007KT 9999 BKN020 OVC027 13/11 Q1026 TEMPO OVC010

METARs EXPIRÉS :
  • 170200Z AUTO 11008KT 9999 BKN020 OVC048 13/11 Q1026 TEMPO OVC010
  • 170130Z AUTO 11008KT 9999 BKN020 BKN026 BKN032 13/11 Q1026 TEMPO OVC010
  • 170100Z AUTO 11010KT 9999 BKN019 OVC024 13/11 Q1026 TEMPO OVC010
  • 170030Z AUTO 11009KT 9999 BKN022 BKN028 BKN037 13/10 Q1027 TEMPO OVC010
  • 170000Z AUTO 11009KT 9999 BKN028 OVC037 13/11 Q1027 TEMPO OVC010

TAF TAF LFML
Valide du 17 à 03h jusqu'au 18 à 09h UTC


170200Z 1703/1809 12007KT 9999 BKN020 OVC030 TX16/1712Z TN10/1703Z
TEMPO 1703/1716 -RA OVC010
BECMG 1716/1718 32010KT
BECMG 1720/1722 CAVOK
BECMG 1803/1805 33020G30KT
ATIS : +33 4 42 31 15 15



MET'MAP, la Météo Aéronautique d'un coup d'oeil ! - Copyright ORBIFLY Décembre 2007 - Disclaimer

ORBIFLY MET'MAP TEAM :

Programmation & Développement : Alexandra Zaïnal
Sur une idée originale de : Baudouin d'Aumeries
Assistance à la programmation : Marc-Olivier Méhu
Soutien technique & logistique : Manuel Goepfert

Contact : metmap@orbifly.com




SOURCES & CREDITS :

   NOAA